Holmes Beach, Florida
Current Conditions -  °F | °C
As of 2:53 PM on Wednesday 17 Dec 2014 (Local Time) from KSRQ Reporting Station
Broken Clouds Broken Clouds  
Wind Chill: 22°   Ceiling: 2300
Heat Index: 22°   Visibility: 10mi
Dew Point: 16°   Wind: 5mph
Humidity: 66%   Direction: 270°W
Pressure: 30.11"   Gusts: NA
Location:  27.5°N, 82.71°W
Report Text: KSRQ 171953Z 27004KT 10SM BKN023 22/16 A3011 RMK AO2 SLP194 T02220156
Loading
Personal Weather Stations






























Interactive Weather Map New forecast layout! Learn more

10-Day Weather Forecast

Advertisements
Track Severe Weather on mobile